createdAt,value
2018-12-12T00:02:26.273Z,3.80
2018-12-12T00:04:54.681Z,3.90
2018-12-12T00:07:23.253Z,4.00
2018-12-12T00:09:51.705Z,3.90
2018-12-12T00:12:20.151Z,3.90
2018-12-12T00:14:48.576Z,3.80
2018-12-12T00:17:17.007Z,3.80
2018-12-12T00:19:45.565Z,4.00
2018-12-12T00:22:13.982Z,3.80
2018-12-12T00:24:42.364Z,3.70
2018-12-12T00:27:10.924Z,3.80
2018-12-12T00:29:39.442Z,3.80
2018-12-12T00:32:07.881Z,3.80
2018-12-12T00:34:36.372Z,4.00
2018-12-12T00:37:04.796Z,3.90
2018-12-12T00:39:33.414Z,3.90
2018-12-12T00:42:01.809Z,4.00
2018-12-12T00:44:30.296Z,4.00
2018-12-12T00:46:59.129Z,4.10
2018-12-12T00:49:27.621Z,3.90
2018-12-12T00:51:56.065Z,4.00
2018-12-12T00:54:24.450Z,4.00
2018-12-12T00:56:52.962Z,4.00
2018-12-12T00:59:21.357Z,4.00
2018-12-12T01:01:49.790Z,3.90
2018-12-12T01:04:18.241Z,2.90
2018-12-12T01:06:46.733Z,3.90
2018-12-12T01:09:15.259Z,3.90
2018-12-12T01:11:49.091Z,3.70
2018-12-12T01:14:17.497Z,3.70
2018-12-12T01:16:45.898Z,3.70
2018-12-12T01:19:14.289Z,3.70
2018-12-12T01:21:42.793Z,3.70
2018-12-12T01:24:11.161Z,3.70
2018-12-12T01:26:40.176Z,3.70
2018-12-12T01:29:08.537Z,3.70
2018-12-12T01:31:37.176Z,3.70
2018-12-12T01:34:05.556Z,3.80
2018-12-12T01:36:34.084Z,3.80
2018-12-12T01:39:04.339Z,3.70
2018-12-12T01:41:32.740Z,3.80
2018-12-12T01:44:01.189Z,3.90
2018-12-12T01:46:30.122Z,3.80
2018-12-12T01:48:58.523Z,3.80
2018-12-12T01:51:26.995Z,3.90
2018-12-12T01:53:55.384Z,3.80
2018-12-12T01:56:23.801Z,3.70
2018-12-12T01:58:52.274Z,3.60
2018-12-12T02:01:20.802Z,3.50
2018-12-12T02:03:49.209Z,3.50
2018-12-12T02:06:17.961Z,3.50
2018-12-12T02:08:46.441Z,3.60
2018-12-12T02:11:14.874Z,3.50
2018-12-12T02:13:43.888Z,3.50
2018-12-12T02:16:12.392Z,3.50
2018-12-12T02:18:44.423Z,3.60
2018-12-12T02:21:12.844Z,3.60
2018-12-12T02:23:42.037Z,3.60
2018-12-12T02:26:10.525Z,3.60
2018-12-12T02:28:38.960Z,3.60
2018-12-12T02:31:07.379Z,3.70
2018-12-12T02:33:35.851Z,3.60
2018-12-12T02:36:04.387Z,3.60
2018-12-12T02:38:32.770Z,3.60
2018-12-12T02:41:01.232Z,3.60
2018-12-12T02:43:29.692Z,3.50
2018-12-12T02:45:58.178Z,3.60
2018-12-12T02:48:26.695Z,3.60
2018-12-12T02:50:55.099Z,3.70
2018-12-12T02:53:23.512Z,3.60
2018-12-12T02:55:51.893Z,3.70
2018-12-12T02:58:20.339Z,3.70
2018-12-12T03:00:48.750Z,3.60
2018-12-12T03:03:17.162Z,3.60
2018-12-12T03:05:45.585Z,3.50
2018-12-12T03:08:14.004Z,3.60
2018-12-12T03:10:42.416Z,3.70
2018-12-12T03:13:10.839Z,3.60
2018-12-12T03:15:39.250Z,3.60
2018-12-12T03:18:07.630Z,3.60
2018-12-12T03:20:36.211Z,3.60
2018-12-12T03:23:04.645Z,3.60
2018-12-12T03:25:33.144Z,3.60
2018-12-12T03:28:01.528Z,3.60
2018-12-12T03:30:29.926Z,3.60
2018-12-12T03:32:58.433Z,3.70
2018-12-12T03:35:26.847Z,3.70
2018-12-12T03:37:55.280Z,3.70
2018-12-12T03:40:24.013Z,3.80
2018-12-12T03:42:52.859Z,3.80
2018-12-12T03:45:21.294Z,3.80
2018-12-12T03:47:49.685Z,3.90
2018-12-12T03:50:18.121Z,3.90
2018-12-12T03:52:46.484Z,3.90
2018-12-12T03:55:15.006Z,3.80
2018-12-12T03:57:43.529Z,3.90
2018-12-12T04:00:11.926Z,3.90
2018-12-12T04:02:40.367Z,3.80
2018-12-12T04:05:09.433Z,3.90
2018-12-12T04:07:37.849Z,3.90
2018-12-12T04:10:06.728Z,3.90
2018-12-12T04:12:35.118Z,3.90
2018-12-12T04:15:03.777Z,3.90
2018-12-12T04:17:32.180Z,3.90
2018-12-12T04:20:00.581Z,4.00
2018-12-12T04:22:29.274Z,3.90
2018-12-12T04:24:58.433Z,4.00
2018-12-12T04:27:26.840Z,3.90
2018-12-12T04:29:55.721Z,3.90
2018-12-12T04:32:24.165Z,4.00
2018-12-12T04:34:52.539Z,4.00
2018-12-12T04:37:20.937Z,4.00
2018-12-12T04:39:49.329Z,4.00
2018-12-12T04:42:17.780Z,3.90
2018-12-12T04:44:46.299Z,3.90
2018-12-12T04:47:14.722Z,3.90
2018-12-12T04:49:43.478Z,3.80
2018-12-12T04:52:11.863Z,3.90
2018-12-12T04:54:40.234Z,3.80
2018-12-12T04:57:09.068Z,3.80
2018-12-12T04:59:37.946Z,3.80
2018-12-12T05:02:06.645Z,3.80
2018-12-12T05:04:35.171Z,3.80
2018-12-12T05:07:03.658Z,3.70
2018-12-12T05:09:32.294Z,3.70
2018-12-12T05:12:00.788Z,3.70
2018-12-12T05:14:29.537Z,3.80
2018-12-12T05:16:57.932Z,3.80
2018-12-12T05:19:26.486Z,3.90
2018-12-12T05:21:55.844Z,3.80
2018-12-12T05:24:24.279Z,3.80
2018-12-12T05:26:52.734Z,3.70
2018-12-12T05:29:21.118Z,3.80
2018-12-12T05:31:49.516Z,3.80
2018-12-12T05:34:17.996Z,3.80
2018-12-12T05:36:48.448Z,3.80
2018-12-12T05:39:16.856Z,3.80
2018-12-12T05:41:45.261Z,3.60
2018-12-12T05:44:13.700Z,3.40
2018-12-12T05:46:42.091Z,3.40
2018-12-12T05:49:10.609Z,3.60
2018-12-12T05:51:39.336Z,3.50
2018-12-12T05:54:07.768Z,3.60
2018-12-12T05:56:36.223Z,3.40
2018-12-12T05:59:04.766Z,3.20
2018-12-12T06:01:33.338Z,3.30
2018-12-12T06:04:01.893Z,3.40
2018-12-12T06:06:30.341Z,3.40
2018-12-12T06:08:59.252Z,3.40
2018-12-12T06:11:27.676Z,3.50
2018-12-12T06:13:56.217Z,3.60
2018-12-12T06:16:24.649Z,3.40
2018-12-12T06:18:53.230Z,3.50
2018-12-12T06:21:22.178Z,3.60
2018-12-12T06:23:50.604Z,3.70
2018-12-12T06:26:19.434Z,3.70
2018-12-12T06:28:54.523Z,3.50
2018-12-12T06:31:22.936Z,3.60
2018-12-12T06:33:51.430Z,3.40
2018-12-12T06:36:20.508Z,3.20
2018-12-12T06:38:49.209Z,3.20
2018-12-12T06:41:18.362Z,3.10
2018-12-12T06:43:47.167Z,3.10
2018-12-12T06:46:15.930Z,3.10
2018-12-12T06:48:44.340Z,3.10
2018-12-12T06:51:12.849Z,3.20
2018-12-12T06:53:41.357Z,3.20
2018-12-12T06:56:10.253Z,3.20
2018-12-12T06:58:39.715Z,3.30
2018-12-12T07:01:08.273Z,3.10
2018-12-12T07:03:36.693Z,3.00
2018-12-12T07:06:05.185Z,3.00
2018-12-12T07:08:33.585Z,2.90
2018-12-12T07:11:02.008Z,2.90
2018-12-12T07:13:35.726Z,2.80
2018-12-12T07:16:00.843Z,2.80
2018-12-12T07:18:29.382Z,2.80
2018-12-12T07:20:57.816Z,2.80
2018-12-12T07:23:26.286Z,2.80
2018-12-12T07:25:54.748Z,2.80
2018-12-12T07:28:23.216Z,2.80
2018-12-12T07:30:51.693Z,2.80
2018-12-12T07:33:20.162Z,2.90
2018-12-12T07:35:48.933Z,2.90
2018-12-12T07:38:17.348Z,2.90
2018-12-12T07:40:45.915Z,2.90
2018-12-12T07:43:14.514Z,2.90
2018-12-12T07:45:43.711Z,2.90
2018-12-12T07:48:12.309Z,2.80
2018-12-12T07:50:41.398Z,2.90
2018-12-12T07:53:09.876Z,3.00
2018-12-12T07:55:38.431Z,3.00
2018-12-12T07:58:07.387Z,3.10
2018-12-12T08:00:35.834Z,3.10
2018-12-12T08:03:06.368Z,3.10
2018-12-12T08:05:34.961Z,3.00
2018-12-12T08:08:03.674Z,3.10
2018-12-12T08:10:32.309Z,3.10
2018-12-12T08:13:00.897Z,3.10
2018-12-12T08:15:29.368Z,3.20
2018-12-12T08:17:57.848Z,3.20
2018-12-12T08:20:26.245Z,3.30
2018-12-12T08:22:56.084Z,3.40
2018-12-12T08:25:24.932Z,3.50
2018-12-12T08:27:53.299Z,3.50
2018-12-12T08:30:21.847Z,3.60
2018-12-12T08:32:50.988Z,3.60
2018-12-12T08:35:19.924Z,3.60
2018-12-12T08:37:48.517Z,3.70
2018-12-12T08:40:20.354Z,3.60
2018-12-12T08:42:48.901Z,3.60
2018-12-12T08:45:17.348Z,3.70
2018-12-12T08:47:46.484Z,3.80
2018-12-12T08:50:15.199Z,3.80
2018-12-12T08:52:43.704Z,3.80
2018-12-12T08:55:17.559Z,3.90
2018-12-12T08:57:42.968Z,3.90
2018-12-12T09:00:11.484Z,4.00
2018-12-12T09:02:40.135Z,4.00
2018-12-12T09:05:08.813Z,4.10
2018-12-12T09:07:37.558Z,4.20
2018-12-12T09:10:06.705Z,4.20
2018-12-12T09:12:35.401Z,4.20
2018-12-12T09:15:04.533Z,4.10
2018-12-12T09:17:33.067Z,4.10
2018-12-12T09:20:01.480Z,4.10
2018-12-12T09:22:29.912Z,4.10
2018-12-12T09:24:58.862Z,4.30
2018-12-12T09:27:27.413Z,4.40
2018-12-12T09:29:56.044Z,4.50
2018-12-12T09:32:24.553Z,4.70
2018-12-12T09:34:53.036Z,4.90
2018-12-12T09:37:21.565Z,5.10
2018-12-12T09:39:50.032Z,5.20
2018-12-12T09:42:19.126Z,5.50
2018-12-12T09:44:47.537Z,5.80
2018-12-12T09:47:16.014Z,5.90
2018-12-12T09:49:44.473Z,6.00
2018-12-12T09:52:13.121Z,6.00
2018-12-12T09:54:41.686Z,6.10
2018-12-12T09:57:10.428Z,6.10
2018-12-12T09:59:38.957Z,6.20
2018-12-12T10:02:07.439Z,5.90
2018-12-12T10:04:35.900Z,6.00
2018-12-12T10:07:04.534Z,6.00
2018-12-12T10:09:39.441Z,6.00
2018-12-12T10:12:08.180Z,6.00
2018-12-12T10:14:36.885Z,6.00
2018-12-12T10:17:05.995Z,5.80
2018-12-12T10:19:34.643Z,5.90
2018-12-12T10:22:04.262Z,5.90
2018-12-12T10:24:33.338Z,6.10
2018-12-12T10:27:01.948Z,6.10
2018-12-12T10:29:30.719Z,6.00
2018-12-12T10:31:59.252Z,6.00
2018-12-12T10:34:27.781Z,5.90
2018-12-12T10:36:56.293Z,5.90
2018-12-12T10:39:25.060Z,6.40
2018-12-12T10:41:53.773Z,6.30
2018-12-12T10:44:22.265Z,6.30
2018-12-12T10:46:50.636Z,6.50
2018-12-12T10:49:19.168Z,6.70
2018-12-12T10:51:47.852Z,6.50
2018-12-12T10:54:16.461Z,6.30
2018-12-12T10:56:45.866Z,6.30
2018-12-12T10:59:14.868Z,6.30
2018-12-12T11:01:47.406Z,6.20
2018-12-12T11:04:18.420Z,6.10
2018-12-12T11:06:46.867Z,6.20
2018-12-12T11:09:15.350Z,6.20
2018-12-12T11:11:43.861Z,6.20
2018-12-12T11:14:12.435Z,6.20
2018-12-12T11:16:41.226Z,6.20
2018-12-12T11:19:10.460Z,6.40
2018-12-12T11:21:38.948Z,6.50
2018-12-12T11:24:07.994Z,6.40
2018-12-12T11:26:36.399Z,6.40
2018-12-12T11:29:04.978Z,6.50
2018-12-12T11:31:33.901Z,6.40
2018-12-12T11:34:02.336Z,6.30
2018-12-12T11:36:30.871Z,6.30
2018-12-12T11:38:59.457Z,6.40
2018-12-12T11:41:28.030Z,6.50
2018-12-12T11:43:56.460Z,6.20
2018-12-12T11:46:25.254Z,6.30
2018-12-12T11:48:53.737Z,6.40
2018-12-12T11:51:22.296Z,6.50
2018-12-12T11:53:50.854Z,6.50
2018-12-12T11:56:19.328Z,6.20
2018-12-12T11:58:48.515Z,6.40
2018-12-12T12:01:17.021Z,6.30
2018-12-12T12:03:46.104Z,6.20
2018-12-12T12:06:14.611Z,6.10
2018-12-12T12:08:43.112Z,6.30
2018-12-12T12:11:11.728Z,6.20
2018-12-12T12:13:40.178Z,6.40
2018-12-12T12:16:08.872Z,6.50
2018-12-12T12:18:37.461Z,6.50
2018-12-12T12:21:05.903Z,6.50
2018-12-12T12:23:34.838Z,6.60
2018-12-12T12:26:03.316Z,6.70
2018-12-12T12:28:32.043Z,6.60
2018-12-12T12:31:00.555Z,6.70
2018-12-12T12:33:29.237Z,6.70
2018-12-12T12:35:57.713Z,6.80
2018-12-12T12:38:26.522Z,6.70
2018-12-12T12:40:54.951Z,6.70
2018-12-12T12:43:25.576Z,6.40
2018-12-12T12:45:54.088Z,6.30
2018-12-12T12:48:22.558Z,6.30
2018-12-12T12:50:51.020Z,6.30
2018-12-12T12:53:20.006Z,6.40
2018-12-12T12:55:48.565Z,6.40
2018-12-12T12:58:16.967Z,6.20
2018-12-12T13:00:45.444Z,6.40
2018-12-12T13:03:13.903Z,6.30
2018-12-12T13:05:42.383Z,6.20
2018-12-12T13:08:10.833Z,6.40
2018-12-12T13:10:39.431Z,6.40
2018-12-12T13:13:08.911Z,6.20
2018-12-12T13:15:37.694Z,6.20
2018-12-12T13:18:06.380Z,6.30
2018-12-12T13:20:34.783Z,6.30
2018-12-12T13:23:03.319Z,6.30
2018-12-12T13:25:32.000Z,6.30
2018-12-12T13:28:00.429Z,6.40
2018-12-12T13:30:28.895Z,6.40
2018-12-12T13:32:59.077Z,6.70
2018-12-12T13:35:27.506Z,6.60
2018-12-12T13:37:56.152Z,6.50
2018-12-12T13:40:25.394Z,6.50
2018-12-12T13:42:55.576Z,6.40
2018-12-12T13:45:25.148Z,6.50
2018-12-12T13:47:53.691Z,6.60
2018-12-12T13:50:22.204Z,6.60
2018-12-12T13:52:52.781Z,6.50
2018-12-12T13:55:21.308Z,6.40
2018-12-12T13:57:49.807Z,6.30
2018-12-12T14:00:18.249Z,6.40
2018-12-12T14:02:46.780Z,6.30
2018-12-12T14:05:15.277Z,6.30
2018-12-12T14:07:43.740Z,6.30
2018-12-12T14:10:12.154Z,6.40
2018-12-12T14:12:40.626Z,6.20
2018-12-12T14:15:09.077Z,6.10
2018-12-12T14:17:37.746Z,6.10
2018-12-12T14:20:06.338Z,6.10
2018-12-12T14:22:35.225Z,6.00
2018-12-12T14:25:04.256Z,6.00
2018-12-12T14:27:38.758Z,5.90
2018-12-12T14:30:05.134Z,5.80
2018-12-12T14:32:34.139Z,5.70
2018-12-12T14:35:02.764Z,5.70
2018-12-12T14:37:31.479Z,5.60
2018-12-12T14:40:00.140Z,5.70
2018-12-12T14:42:29.960Z,5.70
2018-12-12T14:44:58.712Z,5.70
2018-12-12T14:47:27.133Z,5.70
2018-12-12T14:49:55.921Z,5.60
2018-12-12T14:52:24.432Z,5.50
2018-12-12T14:54:53.516Z,5.50
2018-12-12T14:57:22.094Z,5.40
2018-12-12T14:59:50.692Z,5.30
2018-12-12T15:02:19.248Z,5.20
2018-12-12T15:04:47.701Z,5.20
2018-12-12T15:07:16.180Z,5.10
2018-12-12T15:09:45.618Z,5.00
2018-12-12T15:12:14.125Z,5.00
2018-12-12T15:14:42.592Z,4.90
2018-12-12T15:17:12.307Z,4.80
2018-12-12T15:19:40.742Z,4.80
2018-12-12T15:22:09.583Z,4.70
2018-12-12T15:24:38.608Z,4.70
2018-12-12T15:27:07.080Z,4.80
2018-12-12T15:29:35.553Z,4.80
2018-12-12T15:32:04.586Z,4.80
2018-12-12T15:34:33.040Z,4.90
2018-12-12T15:37:01.530Z,4.90
2018-12-12T15:39:30.819Z,4.90
2018-12-12T15:41:59.321Z,4.80
2018-12-12T15:44:28.559Z,4.90
2018-12-12T15:46:57.127Z,5.00
2018-12-12T15:49:25.836Z,5.00
2018-12-12T15:51:54.410Z,5.00
2018-12-12T15:54:23.518Z,5.10
2018-12-12T15:56:52.059Z,5.00
2018-12-12T15:59:20.547Z,5.10
2018-12-12T16:01:49.195Z,5.10
2018-12-12T16:04:17.722Z,5.10
2018-12-12T16:06:46.368Z,5.10
2018-12-12T16:09:14.863Z,5.20
2018-12-12T16:11:43.925Z,5.20
2018-12-12T16:14:15.311Z,5.20
2018-12-12T16:16:43.740Z,5.20
2018-12-12T16:19:12.179Z,5.10
2018-12-12T16:21:40.619Z,5.10
2018-12-12T16:24:09.976Z,5.10
2018-12-12T16:26:39.378Z,5.10
2018-12-12T16:29:07.813Z,5.20
2018-12-12T16:31:36.419Z,5.20
2018-12-12T16:34:04.867Z,5.20
2018-12-12T16:36:33.873Z,5.10
2018-12-12T16:39:02.441Z,5.20
2018-12-12T16:41:31.004Z,5.20
2018-12-12T16:44:00.188Z,5.10
2018-12-12T16:46:28.683Z,5.20
2018-12-12T16:48:57.124Z,5.20
2018-12-12T16:51:25.686Z,5.10
2018-12-12T16:53:54.172Z,5.10
2018-12-12T16:56:22.672Z,5.20
2018-12-12T16:58:51.137Z,5.20
2018-12-12T17:01:19.633Z,5.20
2018-12-12T17:03:48.116Z,5.20
2018-12-12T17:06:16.533Z,5.20
2018-12-12T17:08:44.993Z,5.20
2018-12-12T17:11:13.472Z,5.20
2018-12-12T17:13:41.970Z,5.20
2018-12-12T17:16:10.489Z,5.20
2018-12-12T17:18:39.000Z,5.20
2018-12-12T17:21:07.418Z,5.10
2018-12-12T17:23:36.948Z,5.20
2018-12-12T17:26:05.388Z,5.10
2018-12-12T17:28:35.035Z,5.20
2018-12-12T17:31:04.110Z,5.10
2018-12-12T17:33:32.599Z,5.10
2018-12-12T17:36:01.692Z,5.10
2018-12-12T17:38:30.869Z,5.10
2018-12-12T17:40:59.306Z,5.20
2018-12-12T17:43:27.857Z,5.20
2018-12-12T17:45:57.284Z,5.10
2018-12-12T17:48:25.759Z,5.20
2018-12-12T17:50:55.119Z,5.20
2018-12-12T17:53:23.612Z,5.10
2018-12-12T17:55:52.125Z,5.10
2018-12-12T17:58:20.592Z,5.10
2018-12-12T18:00:49.145Z,5.00
2018-12-12T18:03:18.343Z,5.00
2018-12-12T18:05:46.904Z,5.00
2018-12-12T18:08:15.504Z,5.00
2018-12-12T18:10:44.163Z,5.10
2018-12-12T18:13:12.628Z,5.10
2018-12-12T18:15:41.119Z,5.10
2018-12-12T18:18:09.752Z,5.10
2018-12-12T18:20:38.237Z,5.10
2018-12-12T18:23:06.928Z,5.10
2018-12-12T18:25:35.739Z,5.00
2018-12-12T18:28:04.200Z,5.10
2018-12-12T18:30:32.626Z,5.10
2018-12-12T18:33:01.678Z,5.00
2018-12-12T18:35:30.197Z,5.00
2018-12-12T18:37:58.710Z,5.00
2018-12-12T18:40:28.255Z,4.90
2018-12-12T18:42:57.408Z,5.00
2018-12-12T18:45:25.818Z,4.90
2018-12-12T18:47:54.845Z,4.90
2018-12-12T18:50:23.357Z,4.90
2018-12-12T18:52:52.076Z,4.80
2018-12-12T18:55:20.544Z,4.80
2018-12-12T18:57:49.414Z,4.70
2018-12-12T19:00:18.156Z,4.60
2018-12-12T19:02:47.010Z,4.60
2018-12-12T19:05:15.422Z,4.50
2018-12-12T19:07:43.915Z,4.50
2018-12-12T19:10:12.460Z,4.50
2018-12-12T19:12:41.116Z,4.40
2018-12-12T19:15:09.728Z,4.40
2018-12-12T19:17:38.692Z,4.40
2018-12-12T19:20:13.146Z,4.30
2018-12-12T19:22:41.644Z,4.30
2018-12-12T19:25:10.223Z,4.30
2018-12-12T19:27:40.083Z,4.30
2018-12-12T19:30:09.312Z,4.30
2018-12-12T19:32:38.007Z,4.20
2018-12-12T19:35:07.788Z,4.10
2018-12-12T19:37:36.315Z,4.10
2018-12-12T19:40:06.024Z,4.00
2018-12-12T19:42:34.825Z,4.10
2018-12-12T19:45:03.459Z,4.10
2018-12-12T19:47:33.965Z,4.10
2018-12-12T19:50:02.606Z,4.10
2018-12-12T19:52:32.192Z,4.10
2018-12-12T19:55:00.789Z,4.10
2018-12-12T19:57:29.281Z,4.10
2018-12-12T19:59:57.760Z,4.20
2018-12-12T20:02:26.256Z,4.10
2018-12-12T20:04:55.484Z,4.00
2018-12-12T20:07:24.285Z,3.90
2018-12-12T20:09:53.285Z,3.90
2018-12-12T20:12:21.699Z,3.80
2018-12-12T20:14:50.460Z,3.80
2018-12-12T20:17:18.920Z,3.70
2018-12-12T20:19:47.322Z,3.70
2018-12-12T20:22:15.800Z,3.70
2018-12-12T20:24:44.176Z,3.60
2018-12-12T20:27:12.652Z,3.60
2018-12-12T20:29:41.075Z,3.50
2018-12-12T20:32:09.486Z,3.40
2018-12-12T20:34:37.988Z,3.40
2018-12-12T20:37:07.125Z,3.30
2018-12-12T20:39:35.505Z,3.30
2018-12-12T20:42:04.912Z,3.30
2018-12-12T20:44:33.473Z,3.30
2018-12-12T20:47:02.017Z,3.40
2018-12-12T20:49:30.534Z,3.30
2018-12-12T20:51:59.167Z,3.40
2018-12-12T20:54:27.594Z,3.40
2018-12-12T20:56:56.078Z,3.40
2018-12-12T20:59:24.612Z,3.30
2018-12-12T21:01:53.083Z,3.30
2018-12-12T21:04:21.608Z,3.20
2018-12-12T21:06:50.069Z,3.20
2018-12-12T21:09:18.636Z,3.20
2018-12-12T21:11:47.175Z,3.20
2018-12-12T21:14:15.666Z,3.10
2018-12-12T21:16:44.144Z,3.10
2018-12-12T21:19:12.793Z,3.00
2018-12-12T21:21:41.342Z,3.10
2018-12-12T21:24:09.756Z,3.00
2018-12-12T21:26:38.213Z,3.10
2018-12-12T21:29:06.785Z,3.10
2018-12-12T21:31:35.184Z,3.10
2018-12-12T21:34:03.576Z,3.10
2018-12-12T21:36:31.964Z,4.50
2018-12-12T21:39:00.346Z,3.10
2018-12-12T21:41:29.453Z,3.10
2018-12-12T21:43:57.836Z,3.00
2018-12-12T21:46:26.208Z,2.90
2018-12-12T21:48:54.597Z,2.90
2018-12-12T21:51:22.960Z,2.90
2018-12-12T21:53:51.361Z,2.90
2018-12-12T21:56:19.735Z,2.90
2018-12-12T21:58:48.127Z,2.80
2018-12-12T22:01:16.576Z,2.90
2018-12-12T22:03:45.309Z,2.80
2018-12-12T22:06:14.306Z,2.80
2018-12-12T22:08:42.748Z,2.80
2018-12-12T22:11:11.161Z,2.80
2018-12-12T22:13:39.602Z,2.70
2018-12-12T22:16:08.093Z,2.80
2018-12-12T22:18:36.532Z,2.80
2018-12-12T22:21:04.958Z,2.70
2018-12-12T22:23:33.375Z,2.70
2018-12-12T22:26:01.778Z,2.70
2018-12-12T22:28:30.194Z,2.80
2018-12-12T22:30:58.601Z,2.70
2018-12-12T22:33:27.002Z,2.70
2018-12-12T22:35:55.399Z,2.70
2018-12-12T22:38:23.767Z,2.70
2018-12-12T22:40:52.137Z,2.60
2018-12-12T22:43:20.557Z,2.60
2018-12-12T22:45:49.113Z,2.50
2018-12-12T22:48:20.612Z,2.60
2018-12-12T22:50:47.972Z,2.50
2018-12-12T22:53:16.325Z,2.60
2018-12-12T22:55:44.697Z,2.50
2018-12-12T22:58:13.081Z,2.40
2018-12-12T23:00:44.977Z,2.40
2018-12-12T23:03:13.390Z,2.40
2018-12-12T23:05:41.799Z,2.30
2018-12-12T23:08:10.207Z,2.40
2018-12-12T23:10:38.576Z,2.40
2018-12-12T23:13:07.609Z,2.40
2018-12-12T23:15:36.220Z,2.40
2018-12-12T23:18:04.978Z,2.50
2018-12-12T23:20:33.363Z,2.60
2018-12-12T23:23:01.752Z,2.50
2018-12-12T23:25:30.422Z,2.50
2018-12-12T23:27:58.926Z,2.50
2018-12-12T23:30:27.276Z,2.50
2018-12-12T23:32:55.657Z,2.50
2018-12-12T23:35:24.050Z,2.50
2018-12-12T23:37:52.511Z,2.50
2018-12-12T23:40:20.928Z,2.50
2018-12-12T23:42:49.307Z,2.50
2018-12-12T23:45:17.684Z,2.50
2018-12-12T23:47:46.072Z,2.40
2018-12-12T23:50:14.443Z,2.40
2018-12-12T23:52:42.846Z,2.50
2018-12-12T23:55:11.232Z,2.50
2018-12-12T23:57:39.784Z,2.50
